Terminal Aerodrome Forecast
Issued by NWS Sioux Falls, SD

Home | Current Version | Previous Version | Text Only | Print | Product List | Glossary Off
Versions: 1 2 3 4 5 6 7 8 9 10 11 12 13 14 15 16 17 18 19 20

000
FTUS43 KFSD 271120
TAFHON
TAF
KHON 271120Z 2712/2812 27004KT P6SM SKC
     FM271700 24006KT P6SM SCT060
     FM272000 17008KT P6SM SCT060 BKN250
     FM280200 17008KT P6SM SCT100 OVC250
     FM280700 15007KT P6SM BKN100 WS008/17040KT=

USA.gov is the U.S. government's official web portal to all federal, state and local government web resources and services.